HUZ weather

Huizhou Airport
Huizhou, Guangdong Province, China

Public forecast

Using degrees Celsius for public forecast. Weather courtesy of forecast.io.

Closest aviation weather report (METAR) to Huizhou Airport

Closest report is Shenzhen Bao'an International Airport, 50.1 nm (92.9 km) WSW. Retrieved 2020/06/05 03:00 UTC (33 minutes ago):

ZGSZ 050300Z 18008MPS 9999 FEW023CB SCT023 30/27 Q1007 BECMG AT0320 TSRA

Closest aviation forecast (TAF) to Huizhou Airport

Closest forecast is Shenzhen Bao'an International Airport, 50.1 nm (92.9 km) WSW. Retrieved 2020-06-05 00:00 UTC (4 hours ago):

TAF ZGSZ 042111Z 0500/0524 18006MPS 8000 SCT020 TX32/0506Z TN27/0522Z TEMPO 0500/0503 SHRA SCT015 FEW020CB BKN030 TEMPO 0504/0510 -TSRA SCT012 FEW020CB BKN030 TEMPO 0520/0524 TSRA SCT010 FEW018CB BKN030